Time;durP1;ratioP1;P1;durP2;ratioP2;P2;SDS_P1;SDS_P2;PMS_P1;PMS_P2;Temp;Humidity;BMP_temperature;BMP_pressure;BME280_temperature;BME280_humidity;BME280_pressure;Samples;Min_cycle;Max_cycle;Signal;HPM_P1;HPM_P2
2021/10/23 00:01:36;;;;;;;25.48;8.77;;;;;;;;;;4129220;28;20068;-75
2021/10/23 00:03:37;;;;;;;27.65;9.07;;;;;;;;;;4129813;28;20138;-75
2021/10/23 00:05:38;;;;;;;23.23;8.63;;;;;;;;;;4128068;28;20033;-75
2021/10/23 00:07:39;;;;;;;23.65;7.60;;;;;;;;;;4123445;28;20092;-75
2021/10/23 00:09:40;;;;;;;24.65;7.22;;;;;;;;;;4113608;28;20038;-75
2021/10/23 00:11:41;;;;;;;26.10;7.80;;;;;;;;;;4124746;28;20621;-75
2021/10/23 00:13:42;;;;;;;22.58;7.68;;;;;;;;;;4127952;28;20030;-75
2021/10/23 00:15:43;;;;;;;22.77;7.72;;;;;;;;;;4123500;28;20044;-75
2021/10/23 00:17:44;;;;;;;27.67;8.13;;;;;;;;;;4126884;28;20042;-76
2021/10/23 00:19:45;;;;;;;27.90;6.72;;;;;;;;;;4124531;28;20054;-75
2021/10/23 00:21:47;;;;;;;23.83;6.63;;;;;;;;;;4122755;28;20070;-75
2021/10/23 00:23:48;;;;;;;24.83;7.28;;;;;;;;;;4123948;28;20039;-75
2021/10/23 00:25:49;;;;;;;25.33;7.65;;;;;;;;;;4115410;28;20044;-76
2021/10/23 00:27:50;;;;;;;25.75;8.20;;;;;;;;;;4127223;28;20548;-75
2021/10/23 00:29:52;;;;;;;23.45;7.93;;;;;;;;;;4129339;28;20042;-75
2021/10/23 00:31:53;;;;;;;28.15;10.88;;;;;;;;;;4126601;28;20409;-76
2021/10/23 00:33:54;;;;;;;22.30;7.45;;;;;;;;;;4129729;28;20041;-75
2021/10/23 00:35:55;;;;;;;28.08;8.65;;;;;;;;;;4124187;28;20049;-75
2021/10/23 00:37:56;;;;;;;17.35;6.55;;;;;;;;;;4126818;28;20038;-75
2021/10/23 00:39:57;;;;;;;28.98;7.60;;;;;;;;;;4119104;28;20031;-76
2021/10/23 00:41:59;;;;;;;23.77;6.93;;;;;;;;;;4121705;28;20116;-76
2021/10/23 00:44:00;;;;;;;17.77;6.78;;;;;;;;;;4128905;28;20097;-76
2021/10/23 00:46:01;;;;;;;20.02;6.90;;;;;;;;;;4130180;28;20033;-75
2021/10/23 00:48:01;;;;;;;28.35;9.10;;;;;;;;;;4128470;28;20030;-76
2021/10/23 00:50:03;;;;;;;24.55;7.97;;;;;;;;;;4128264;28;20046;-76
2021/10/23 00:52:05;;;;;;;16.88;7.07;;;;;;;;;;4120736;28;20434;-76
2021/10/23 00:54:06;;;;;;;25.88;7.50;;;;;;;;;;4126097;28;20030;-76
2021/10/23 00:56:07;;;;;;;19.88;6.35;;;;;;;;;;4114137;28;20043;-76
2021/10/23 00:58:09;;;;;;;14.98;6.65;;;;;;;;;;4123253;28;20039;-75
2021/10/23 01:00:10;;;;;;;14.88;6.35;;;;;;;;;;4127934;28;20038;-75
2021/10/23 01:02:11;;;;;;;15.75;6.72;;;;;;;;;;4128225;28;20042;-77
2021/10/23 01:04:13;;;;;;;28.73;7.65;;;;;;;;;;4130040;28;20121;-75
2021/10/23 01:06:13;;;;;;;16.88;6.07;;;;;;;;;;4125612;28;20092;-76
2021/10/23 01:08:15;;;;;;;17.42;6.70;;;;;;;;;;4114227;28;20446;-76
2021/10/23 01:10:16;;;;;;;14.75;6.22;;;;;;;;;;4127393;28;20031;-75
2021/10/23 01:12:17;;;;;;;12.93;5.00;;;;;;;;;;4113795;28;20050;-75
2021/10/23 01:14:19;;;;;;;21.65;6.43;;;;;;;;;;4129899;28;20038;-75
2021/10/23 01:16:20;;;;;;;17.15;6.55;;;;;;;;;;4129117;28;20041;-75
2021/10/23 01:18:21;;;;;;;28.38;6.78;;;;;;;;;;4128355;28;20887;-76
2021/10/23 01:20:24;;;;;;;13.32;5.68;;;;;;;;;;4129012;28;20048;-75
2021/10/23 01:22:28;;;;;;;17.55;6.15;;;;;;;;;;4129009;28;20117;-75
2021/10/23 01:24:30;;;;;;;24.13;6.30;;;;;;;;;;4128485;28;20042;-75
2021/10/23 01:26:31;;;;;;;25.67;6.15;;;;;;;;;;4121167;28;20038;-76
2021/10/23 01:28:32;;;;;;;21.10;5.85;;;;;;;;;;4123176;28;20042;-76
2021/10/23 01:30:33;;;;;;;15.32;6.03;;;;;;;;;;4124331;28;20045;-76
2021/10/23 01:32:35;;;;;;;19.83;6.40;;;;;;;;;;4130168;28;20050;-76
2021/10/23 01:34:36;;;;;;;20.92;5.63;;;;;;;;;;4128465;28;20023;-76
2021/10/23 01:36:41;;;;;;;19.15;5.85;;;;;;;;;;4129005;28;20109;-76
2021/10/23 01:38:42;;;;;;;18.98;5.72;;;;;;;;;;4117915;28;20035;-76
2021/10/23 01:40:43;;;;;;;18.70;6.13;;;;;;;;;;4138387;28;20425;-76
2021/10/23 01:42:44;;;;;;;17.13;5.53;;;;;;;;;;4128368;28;20042;-76
2021/10/23 01:44:45;;;;;;;20.80;4.70;;;;;;;;;;4130916;28;20042;-76
2021/10/23 01:46:46;;;;;;;14.95;4.85;;;;;;;;;;4122732;28;20045;-76
2021/10/23 01:48:47;;;;;;;14.38;4.85;;;;;;;;;;4127658;28;20149;-75
2021/10/23 01:50:48;;;;;;;14.82;4.65;;;;;;;;;;4131560;28;20161;-75
2021/10/23 01:52:50;;;;;;;18.02;5.18;;;;;;;;;;4131327;28;20034;-76
2021/10/23 01:54:51;;;;;;;28.45;5.97;;;;;;;;;;4132768;28;20068;-76
2021/10/23 01:56:52;;;;;;;16.60;4.78;;;;;;;;;;4131081;28;20045;-76
2021/10/23 01:58:53;;;;;;;16.50;5.50;;;;;;;;;;4116577;28;20463;-76
2021/10/23 02:00:54;;;;;;;17.17;6.07;;;;;;;;;;4129650;28;20134;-75
2021/10/23 02:02:55;;;;;;;20.95;5.65;;;;;;;;;;4130840;28;20418;-76
2021/10/23 02:04:56;;;;;;;18.45;5.57;;;;;;;;;;4128664;28;20090;-76
2021/10/23 02:06:57;;;;;;;14.35;5.43;;;;;;;;;;4118491;28;20043;-76
2021/10/23 02:08:58;;;;;;;17.77;6.07;;;;;;;;;;4131506;28;20042;-76
2021/10/23 02:11:00;;;;;;;18.60;5.88;;;;;;;;;;4131997;28;20370;-75
2021/10/23 02:13:00;;;;;;;14.07;5.38;;;;;;;;;;4131708;28;20119;-76
2021/10/23 02:15:02;;;;;;;23.90;7.55;;;;;;;;;;4129159;28;20127;-76
2021/10/23 02:17:03;;;;;;;15.70;6.07;;;;;;;;;;4131446;28;20559;-76
2021/10/23 02:19:04;;;;;;;15.57;6.32;;;;;;;;;;4132882;28;20369;-76
2021/10/23 02:21:07;;;;;;;26.17;5.90;;;;;;;;;;4123408;28;20050;-76
2021/10/23 02:23:08;;;;;;;17.55;6.25;;;;;;;;;;4120889;28;20030;-76
2021/10/23 02:25:10;;;;;;;18.67;5.93;;;;;;;;;;4131045;28;20039;-76
2021/10/23 02:27:11;;;;;;;19.58;5.70;;;;;;;;;;4131909;28;20401;-76
2021/10/23 02:29:12;;;;;;;20.02;7.32;;;;;;;;;;4130882;28;20058;-76
2021/10/23 02:31:13;;;;;;;15.95;6.10;;;;;;;;;;4131104;28;20034;-76
2021/10/23 02:33:14;;;;;;;22.27;6.90;;;;;;;;;;4127165;28;20034;-76
2021/10/23 02:35:15;;;;;;;16.63;5.97;;;;;;;;;;4128307;28;20465;-76
2021/10/23 02:37:18;;;;;;;18.23;6.80;;;;;;;;;;4132278;28;20073;-76
2021/10/23 02:39:19;;;;;;;21.98;6.25;;;;;;;;;;4128054;28;20042;-76
2021/10/23 02:41:24;;;;;;;18.70;6.25;;;;;;;;;;4131895;28;20411;-76
2021/10/23 02:43:25;;;;;;;16.63;6.88;;;;;;;;;;4128780;28;20033;-76
2021/10/23 02:45:27;;;;;;;21.08;6.82;;;;;;;;;;4132318;28;20096;-76
2021/10/23 02:47:27;;;;;;;21.92;6.28;;;;;;;;;;4130171;28;20648;-76
2021/10/23 02:49:28;;;;;;;18.50;7.35;;;;;;;;;;4130091;28;20089;-76
2021/10/23 02:51:29;;;;;;;19.00;6.43;;;;;;;;;;4129285;28;20046;-76
2021/10/23 02:53:30;;;;;;;25.20;7.13;;;;;;;;;;4117123;28;20727;-76
2021/10/23 02:55:31;;;;;;;23.50;8.52;;;;;;;;;;4126897;28;20038;-76
2021/10/23 02:57:33;;;;;;;15.32;6.15;;;;;;;;;;4121611;28;20042;-76
2021/10/23 02:59:34;;;;;;;14.38;5.40;;;;;;;;;;4129780;28;20646;-76
2021/10/23 03:01:35;;;;;;;18.85;7.13;;;;;;;;;;4131213;28;20034;-76
2021/10/23 03:03:36;;;;;;;19.63;7.30;;;;;;;;;;4125568;28;20490;-76
2021/10/23 03:05:37;;;;;;;15.65;6.57;;;;;;;;;;4129965;28;20042;-76
2021/10/23 03:07:38;;;;;;;18.15;6.78;;;;;;;;;;4129114;28;20091;-76
2021/10/23 03:09:39;;;;;;;21.50;6.07;;;;;;;;;;4131303;28;20053;-76
2021/10/23 03:11:40;;;;;;;16.05;6.22;;;;;;;;;;4122553;28;20443;-75
2021/10/23 03:13:41;;;;;;;30.70;7.25;;;;;;;;;;4124885;28;20663;-75
2021/10/23 03:15:42;;;;;;;22.67;6.97;;;;;;;;;;4122795;28;20086;-75
2021/10/23 03:17:44;;;;;;;15.13;6.65;;;;;;;;;;4122888;28;20070;-76
2021/10/23 03:19:45;;;;;;;13.43;5.95;;;;;;;;;;4130313;28;20031;-75
2021/10/23 03:21:46;;;;;;;19.25;6.78;;;;;;;;;;4130240;28;20197;-75
2021/10/23 03:23:47;;;;;;;18.52;5.90;;;;;;;;;;4130273;28;20105;-76
2021/10/23 03:25:49;;;;;;;14.57;5.85;;;;;;;;;;4130046;28;20155;-75
2021/10/23 03:27:49;;;;;;;19.60;6.25;;;;;;;;;;4129720;28;20037;-76
2021/10/23 03:29:50;;;;;;;9.30;5.47;;;;;;;;;;4124564;28;20066;-76
2021/10/23 03:31:52;;;;;;;16.60;6.28;;;;;;;;;;4129553;28;20514;-75
2021/10/23 03:33:53;;;;;;;18.52;7.28;;;;;;;;;;4141217;28;20050;-75
2021/10/23 03:35:54;;;;;;;12.15;5.85;;;;;;;;;;4131316;28;20078;-76
2021/10/23 03:37:55;;;;;;;14.88;6.25;;;;;;;;;;4128942;28;20038;-75
2021/10/23 03:39:56;;;;;;;17.05;6.30;;;;;;;;;;4129047;28;20170;-76
2021/10/23 03:41:57;;;;;;;20.30;6.78;;;;;;;;;;4129738;28;20043;-76
2021/10/23 03:43:58;;;;;;;15.70;6.13;;;;;;;;;;4123841;28;20038;-75
2021/10/23 03:45:59;;;;;;;16.70;7.32;;;;;;;;;;4130440;28;20168;-75
2021/10/23 03:48:00;;;;;;;15.23;6.45;;;;;;;;;;4128447;28;20034;-76
2021/10/23 03:50:01;;;;;;;15.70;7.45;;;;;;;;;;4128624;28;20049;-76
2021/10/23 03:52:02;;;;;;;19.38;7.15;;;;;;;;;;4126694;28;21810;-76
2021/10/23 03:54:03;;;;;;;16.70;6.93;;;;;;;;;;4130099;28;20042;-76
2021/10/23 03:56:04;;;;;;;15.05;6.28;;;;;;;;;;4129316;28;20038;-76
2021/10/23 03:58:05;;;;;;;23.40;7.00;;;;;;;;;;4127844;28;20038;-75
2021/10/23 04:00:07;;;;;;;22.00;7.85;;;;;;;;;;4116472;28;20038;-77
2021/10/23 04:02:08;;;;;;;21.00;6.72;;;;;;;;;;4121708;28;20510;-75
2021/10/23 04:04:09;;;;;;;14.45;6.78;;;;;;;;;;4117913;28;20062;-75
2021/10/23 04:06:10;;;;;;;23.13;7.68;;;;;;;;;;4124231;28;20383;-75
2021/10/23 04:08:11;;;;;;;19.70;7.55;;;;;;;;;;4130061;28;20034;-75
2021/10/23 04:10:12;;;;;;;16.65;8.13;;;;;;;;;;4126344;28;20035;-76
2021/10/23 04:12:14;;;;;;;22.23;7.90;;;;;;;;;;4122457;28;20067;-75
2021/10/23 04:14:15;;;;;;;23.27;8.98;;;;;;;;;;4124958;28;20022;-75
2021/10/23 04:16:16;;;;;;;19.80;8.02;;;;;;;;;;4136490;28;20037;-76
2021/10/23 04:18:17;;;;;;;21.65;8.80;;;;;;;;;;4129327;28;20027;-75
2021/10/23 04:20:18;;;;;;;18.77;8.50;;;;;;;;;;4129930;28;20034;-75
2021/10/23 04:22:19;;;;;;;21.55;8.95;;;;;;;;;;4116246;28;20127;-75
2021/10/23 04:24:20;;;;;;;24.73;10.05;;;;;;;;;;4122378;28;20037;-75
2021/10/23 04:26:21;;;;;;;19.70;8.73;;;;;;;;;;4128930;28;21923;-75
2021/10/23 04:28:22;;;;;;;19.75;9.85;;;;;;;;;;4128919;28;20692;-76
2021/10/23 04:30:23;;;;;;;30.33;10.05;;;;;;;;;;4114514;28;20031;-75
2021/10/23 04:32:24;;;;;;;24.23;10.15;;;;;;;;;;4126287;28;20045;-76
2021/10/23 04:34:26;;;;;;;22.05;9.52;;;;;;;;;;4114440;28;20109;-75
2021/10/23 04:36:27;;;;;;;17.05;8.65;;;;;;;;;;4126643;28;20049;-74
2021/10/23 04:38:28;;;;;;;21.92;10.20;;;;;;;;;;4113602;28;20042;-75
2021/10/23 04:40:29;;;;;;;18.20;9.77;;;;;;;;;;4128182;28;20121;-75
2021/10/23 04:42:30;;;;;;;20.55;9.95;;;;;;;;;;4123223;28;20046;-76
2021/10/23 04:44:31;;;;;;;23.15;9.95;;;;;;;;;;4127859;28;20042;-76
2021/10/23 04:46:32;;;;;;;24.45;10.35;;;;;;;;;;4125314;28;20078;-76
2021/10/23 04:48:34;;;;;;;24.33;10.90;;;;;;;;;;4129776;28;20045;-76
2021/10/23 04:50:35;;;;;;;22.08;10.70;;;;;;;;;;4129745;28;20056;-76
2021/10/23 04:52:36;;;;;;;26.98;11.32;;;;;;;;;;4138660;28;20038;-76
2021/10/23 04:54:37;;;;;;;29.20;11.75;;;;;;;;;;4130857;28;20039;-76
2021/10/23 04:56:38;;;;;;;20.52;11.57;;;;;;;;;;4123966;28;20035;-76
2021/10/23 04:58:39;;;;;;;30.27;12.90;;;;;;;;;;4127972;28;20046;-76
2021/10/23 05:00:40;;;;;;;29.63;11.77;;;;;;;;;;4128576;28;20054;-76
2021/10/23 05:02:41;;;;;;;22.45;11.75;;;;;;;;;;4130337;28;20073;-76
2021/10/23 05:04:42;;;;;;;31.48;14.23;;;;;;;;;;4128582;28;20112;-76
2021/10/23 05:06:43;;;;;;;30.33;14.10;;;;;;;;;;4128269;28;20037;-76
2021/10/23 05:08:44;;;;;;;25.75;14.07;;;;;;;;;;4117864;28;20513;-76
2021/10/23 05:10:45;;;;;;;34.47;15.27;;;;;;;;;;4125377;28;20486;-76
2021/10/23 05:12:47;;;;;;;38.38;15.52;;;;;;;;;;4128648;28;20125;-76
2021/10/23 05:14:48;;;;;;;36.42;14.35;;;;;;;;;;4129209;28;20054;-76
2021/10/23 05:16:49;;;;;;;35.72;14.05;;;;;;;;;;4128705;28;20034;-76
2021/10/23 05:18:50;;;;;;;34.13;14.40;;;;;;;;;;4127277;28;20049;-76
2021/10/23 05:20:51;;;;;;;34.42;14.02;;;;;;;;;;4130118;28;20062;-76
2021/10/23 05:22:52;;;;;;;34.00;13.43;;;;;;;;;;4128340;28;20042;-76
2021/10/23 05:24:53;;;;;;;29.90;13.50;;;;;;;;;;4116971;28;20094;-76
2021/10/23 05:26:54;;;;;;;33.05;14.70;;;;;;;;;;4129302;28;20126;-76
2021/10/23 05:28:55;;;;;;;38.63;16.80;;;;;;;;;;4129730;28;20084;-76
2021/10/23 05:30:56;;;;;;;44.60;16.92;;;;;;;;;;4132336;28;20039;-75
2021/10/23 05:32:57;;;;;;;33.88;16.38;;;;;;;;;;4132249;28;20052;-75
2021/10/23 05:34:59;;;;;;;37.85;17.92;;;;;;;;;;4132288;28;20109;-75
2021/10/23 05:37:00;;;;;;;47.35;20.25;;;;;;;;;;4131864;28;20077;-76
2021/10/23 05:39:01;;;;;;;38.38;16.73;;;;;;;;;;4126365;28;20043;-76
2021/10/23 05:41:02;;;;;;;38.15;19.00;;;;;;;;;;4128892;28;20046;-75
2021/10/23 05:43:03;;;;;;;39.03;17.00;;;;;;;;;;4125711;28;20034;-76
2021/10/23 05:45:04;;;;;;;43.35;19.25;;;;;;;;;;4125435;28;20042;-75
2021/10/23 05:47:05;;;;;;;45.83;20.40;;;;;;;;;;4124447;28;20039;-76
2021/10/23 05:49:06;;;;;;;43.30;19.20;;;;;;;;;;4124407;28;20058;-76
2021/10/23 05:51:07;;;;;;;45.45;22.13;;;;;;;;;;4133140;28;20137;-76
2021/10/23 05:53:08;;;;;;;46.30;20.45;;;;;;;;;;4130818;28;20097;-75
2021/10/23 05:55:09;;;;;;;36.08;18.42;;;;;;;;;;4130742;28;20034;-76
2021/10/23 05:57:11;;;;;;;42.53;18.17;;;;;;;;;;4131141;28;20034;-76
2021/10/23 05:59:13;;;;;;;35.40;18.35;;;;;;;;;;4131463;28;20031;-76
2021/10/23 06:01:14;;;;;;;44.05;19.65;;;;;;;;;;4130498;28;20026;-76
2021/10/23 06:03:20;;;;;;;41.03;18.77;;;;;;;;;;4130730;28;20557;-76
2021/10/23 06:05:20;;;;;;;39.83;21.25;;;;;;;;;;4131522;28;20041;-76
2021/10/23 06:07:24;;;;;;;42.92;19.85;;;;;;;;;;4134077;28;20386;-76
2021/10/23 06:09:25;;;;;;;42.22;18.20;;;;;;;;;;4130048;28;20379;-76
2021/10/23 06:11:26;;;;;;;43.67;17.48;;;;;;;;;;4130291;28;20038;-76
2021/10/23 06:13:27;;;;;;;51.53;21.20;;;;;;;;;;4130699;28;20057;-75
2021/10/23 06:15:28;;;;;;;41.13;19.83;;;;;;;;;;4130983;28;20038;-75
2021/10/23 06:17:29;;;;;;;48.83;26.02;;;;;;;;;;4128028;28;20046;-76
2021/10/23 06:19:30;;;;;;;39.15;19.35;;;;;;;;;;4142419;28;20116;-76
2021/10/23 06:21:31;;;;;;;54.45;22.40;;;;;;;;;;4130692;28;20042;-75
2021/10/23 06:23:32;;;;;;;38.78;19.73;;;;;;;;;;4131843;28;20038;-75
2021/10/23 06:25:33;;;;;;;51.92;23.08;;;;;;;;;;4125851;28;20041;-75
2021/10/23 06:27:34;;;;;;;47.67;20.85;;;;;;;;;;4122226;28;20070;-75
2021/10/23 06:29:35;;;;;;;44.92;20.48;;;;;;;;;;4130745;28;20501;-75
2021/10/23 06:31:36;;;;;;;49.85;22.85;;;;;;;;;;4132539;28;20046;-75
2021/10/23 06:33:38;;;;;;;47.35;22.10;;;;;;;;;;4130655;28;20037;-76
2021/10/23 06:35:38;;;;;;;50.13;24.15;;;;;;;;;;4131810;28;20101;-76
2021/10/23 06:37:40;;;;;;;57.17;23.48;;;;;;;;;;4130594;28;20527;-76
2021/10/23 06:39:40;;;;;;;54.70;23.80;;;;;;;;;;4130843;28;20122;-76
2021/10/23 06:41:42;;;;;;;51.28;23.70;;;;;;;;;;4129226;28;20035;-76
2021/10/23 06:43:43;;;;;;;51.08;25.77;;;;;;;;;;4132327;28;20069;-75
2021/10/23 06:45:44;;;;;;;57.72;25.27;;;;;;;;;;4130490;28;20077;-75
2021/10/23 06:47:46;;;;;;;50.00;23.10;;;;;;;;;;4128980;28;20053;-75
2021/10/23 06:49:47;;;;;;;56.60;24.13;;;;;;;;;;4128968;28;20138;-76
2021/10/23 06:51:48;;;;;;;56.92;27.95;;;;;;;;;;4132079;28;20050;-72
2021/10/23 06:53:52;;;;;;;60.85;27.38;;;;;;;;;;4122076;28;20038;-72
2021/10/23 06:55:53;;;;;;;61.78;29.63;;;;;;;;;;4132893;28;20042;-72
2021/10/23 06:57:54;;;;;;;64.32;27.67;;;;;;;;;;4116032;28;20398;-72
2021/10/23 06:59:55;;;;;;;67.72;30.65;;;;;;;;;;4130130;28;20042;-72
2021/10/23 07:01:56;;;;;;;62.80;28.42;;;;;;;;;;4131683;28;20034;-72
2021/10/23 07:03:57;;;;;;;68.45;30.95;;;;;;;;;;4130658;28;20465;-73
2021/10/23 07:05:58;;;;;;;81.00;32.90;;;;;;;;;;4127532;28;20538;-73
2021/10/23 07:07:59;;;;;;;69.53;31.67;;;;;;;;;;4128313;28;20042;-72
2021/10/23 07:10:00;;;;;;;85.20;36.33;;;;;;;;;;4127238;28;20039;-73
2021/10/23 07:12:02;;;;;;;75.65;32.30;;;;;;;;;;4127276;28;20070;-73
2021/10/23 07:14:03;;;;;;;79.65;38.30;;;;;;;;;;4122401;28;20094;-73
2021/10/23 07:16:04;;;;;;;78.80;37.72;;;;;;;;;;4131910;28;20043;-72
2021/10/23 07:18:06;;;;;;;81.03;39.22;;;;;;;;;;4131983;28;20486;-73
2021/10/23 07:20:07;;;;;;;67.47;32.08;;;;;;;;;;4127226;28;20035;-73
2021/10/23 07:22:08;;;;;;;71.15;35.80;;;;;;;;;;4131883;28;20031;-73
2021/10/23 07:24:09;;;;;;;65.38;31.80;;;;;;;;;;4129954;28;20043;-72
2021/10/23 07:26:10;;;;;;;76.85;39.17;;;;;;;;;;4128980;28;20100;-72
2021/10/23 07:28:11;;;;;;;82.43;39.10;;;;;;;;;;4128899;28;20042;-73
2021/10/23 07:30:12;;;;;;;87.13;39.85;;;;;;;;;;4129117;28;20041;-72
2021/10/23 07:32:13;;;;;;;87.35;41.22;;;;;;;;;;4140166;28;20068;-72
2021/10/23 07:34:14;;;;;;;86.72;41.38;;;;;;;;;;4139049;28;20026;-71
2021/10/23 07:36:17;;;;;;;95.07;44.53;;;;;;;;;;4126962;28;20019;-72
2021/10/23 07:38:18;;;;;;;85.18;42.72;;;;;;;;;;4129954;28;20030;-72
2021/10/23 07:40:19;;;;;;;87.32;42.47;;;;;;;;;;4126328;28;20533;-73
2021/10/23 07:42:20;;;;;;;97.93;42.53;;;;;;;;;;4130195;28;20038;-73
2021/10/23 07:44:22;;;;;;;87.53;41.70;;;;;;;;;;4129762;28;20038;-73
2021/10/23 07:46:23;;;;;;;91.18;45.90;;;;;;;;;;4126869;28;20046;-73
2021/10/23 07:48:24;;;;;;;91.53;43.03;;;;;;;;;;4124615;28;20057;-72
2021/10/23 07:50:25;;;;;;;80.93;39.92;;;;;;;;;;4129209;28;20046;-72
2021/10/23 07:52:26;;;;;;;93.88;45.20;;;;;;;;;;4130825;28;20046;-71
2021/10/23 07:54:27;;;;;;;83.50;43.03;;;;;;;;;;4129325;28;20553;-72
2021/10/23 07:56:28;;;;;;;86.68;44.30;;;;;;;;;;4130635;28;20068;-72
2021/10/23 07:58:30;;;;;;;96.78;45.70;;;;;;;;;;4125690;28;20426;-73
2021/10/23 08:00:31;;;;;;;82.68;42.55;;;;;;;;;;4129444;28;20077;-72
2021/10/23 08:02:32;;;;;;;82.43;44.58;;;;;;;;;;4128980;28;20048;-73
2021/10/23 08:04:33;;;;;;;97.32;46.13;;;;;;;;;;4130274;28;20038;-72
2021/10/23 08:06:34;;;;;;;91.20;44.80;;;;;;;;;;4131224;28;20054;-73
2021/10/23 08:08:35;;;;;;;76.75;40.10;;;;;;;;;;4128928;28;20048;-72
2021/10/23 08:10:37;;;;;;;84.57;44.10;;;;;;;;;;4130726;28;20100;-72
2021/10/23 08:12:38;;;;;;;83.63;43.72;;;;;;;;;;4128787;28;20041;-72
2021/10/23 08:14:39;;;;;;;81.53;41.80;;;;;;;;;;4129108;28;20093;-72
2021/10/23 08:16:41;;;;;;;91.25;44.30;;;;;;;;;;4119557;28;20070;-72
2021/10/23 08:18:42;;;;;;;83.53;43.70;;;;;;;;;;4120347;28;20053;-71
2021/10/23 08:20:43;;;;;;;89.03;45.13;;;;;;;;;;4126107;28;20733;-72
2021/10/23 08:22:44;;;;;;;86.10;44.97;;;;;;;;;;4127791;28;20045;-72
2021/10/23 08:24:47;;;;;;;99.88;46.85;;;;;;;;;;4127847;28;20544;-72
2021/10/23 08:26:49;;;;;;;78.07;38.42;;;;;;;;;;4126190;28;20038;-72
2021/10/23 08:28:50;;;;;;;93.20;46.13;;;;;;;;;;4126142;28;20080;-72
2021/10/23 08:30:51;;;;;;;88.35;43.38;;;;;;;;;;4128811;28;20051;-72
2021/10/23 08:32:52;;;;;;;76.28;39.75;;;;;;;;;;4129406;28;20509;-72
2021/10/23 08:34:55;;;;;;;88.95;42.90;;;;;;;;;;4125522;28;20109;-72
2021/10/23 08:36:56;;;;;;;89.20;42.78;;;;;;;;;;4124033;28;20422;-72
2021/10/23 08:38:57;;;;;;;94.97;46.20;;;;;;;;;;4122033;28;20049;-72
2021/10/23 08:40:58;;;;;;;94.07;46.05;;;;;;;;;;4125704;28;20092;-72
2021/10/23 08:43:00;;;;;;;114.10;51.80;;;;;;;;;;4125438;28;20046;-71
2021/10/23 08:45:05;;;;;;;97.00;46.35;;;;;;;;;;4125624;28;20042;-73
2021/10/23 08:47:07;;;;;;;99.93;48.45;;;;;;;;;;4127262;28;20117;-72
2021/10/23 08:49:08;;;;;;;99.63;49.20;;;;;;;;;;4128578;28;20104;-72
2021/10/23 08:51:09;;;;;;;97.70;46.50;;;;;;;;;;4129284;28;20052;-71
2021/10/23 08:53:11;;;;;;;99.93;48.97;;;;;;;;;;4123762;28;20542;-72
2021/10/23 08:55:12;;;;;;;97.03;45.38;;;;;;;;;;4129204;28;20038;-72
2021/10/23 08:57:13;;;;;;;77.63;39.75;;;;;;;;;;4129149;28;20042;-72
2021/10/23 08:59:14;;;;;;;110.13;50.67;;;;;;;;;;4129239;28;20038;-72
2021/10/23 09:01:15;;;;;;;111.15;50.50;;;;;;;;;;4130176;28;20084;-72
2021/10/23 09:03:17;;;;;;;110.00;49.58;;;;;;;;;;4127796;28;20414;-71
2021/10/23 09:05:18;;;;;;;111.22;50.47;;;;;;;;;;4128370;28;20039;-72
2021/10/23 09:07:22;;;;;;;116.55;52.70;;;;;;;;;;4120158;28;20035;-71
2021/10/23 09:09:23;;;;;;;123.20;56.65;;;;;;;;;;4120506;28;20030;-71
2021/10/23 09:11:28;;;;;;;113.97;52.45;;;;;;;;;;4126157;28;20070;-71
2021/10/23 09:13:34;;;;;;;116.78;50.00;;;;;;;;;;4129089;28;20026;-71
2021/10/23 09:15:42;;;;;;;101.93;46.25;;;;;;;;;;4129031;28;20041;-71
2021/10/23 09:17:53;;;;;;;98.35;44.42;;;;;;;;;;4126831;28;20121;-72
2021/10/23 09:19:54;;;;;;;100.25;44.40;;;;;;;;;;4128696;28;20655;-72
2021/10/23 09:21:56;;;;;;;103.50;41.03;;;;;;;;;;4129171;28;20065;-72
2021/10/23 09:23:57;;;;;;;95.25;41.55;;;;;;;;;;4125708;28;20097;-72
2021/10/23 09:25:57;;;;;;;87.05;40.47;;;;;;;;;;4124397;28;20034;-72
2021/10/23 09:27:59;;;;;;;92.10;39.05;;;;;;;;;;4129080;28;20493;-72
2021/10/23 09:30:00;;;;;;;99.50;37.47;;;;;;;;;;4128639;28;20548;-72
2021/10/23 09:32:01;;;;;;;88.68;38.95;;;;;;;;;;4128180;28;20050;-72
2021/10/23 09:34:02;;;;;;;80.10;38.33;;;;;;;;;;4126008;28;20027;-73
2021/10/23 09:36:04;;;;;;;76.80;36.10;;;;;;;;;;4128559;28;20085;-72
2021/10/23 09:38:05;;;;;;;84.13;38.47;;;;;;;;;;4128107;28;20193;-72
2021/10/23 09:40:07;;;;;;;81.97;36.30;;;;;;;;;;4127954;28;20050;-72
2021/10/23 09:42:18;;;;;;;85.13;39.97;;;;;;;;;;4128279;28;20027;-70
2021/10/23 09:44:19;;;;;;;93.28;42.60;;;;;;;;;;4127737;28;20081;-71
2021/10/23 09:46:24;;;;;;;88.80;44.20;;;;;;;;;;4128772;28;20027;-72
2021/10/23 09:48:31;;;;;;;93.18;47.15;;;;;;;;;;4128468;28;20038;-71
2021/10/23 09:50:33;;;;;;;95.25;43.70;;;;;;;;;;4127444;28;20067;-72
2021/10/23 09:52:34;;;;;;;92.13;47.22;;;;;;;;;;4127411;28;20046;-71
2021/10/23 09:54:36;;;;;;;89.80;43.85;;;;;;;;;;4121457;28;20478;-71
2021/10/23 09:56:39;;;;;;;82.63;43.63;;;;;;;;;;4113934;28;20030;-72
2021/10/23 09:59:01;;;;;;;96.28;48.35;;;;;;;;;;4113987;28;20042;-72
2021/10/23 10:01:02;;;;;;;94.57;49.45;;;;;;;;;;4115259;28;20379;-72
2021/10/23 10:03:04;;;;;;;87.72;46.42;;;;;;;;;;4111478;28;20046;-72
2021/10/23 10:05:05;;;;;;;88.38;48.47;;;;;;;;;;4112592;28;20041;-72
2021/10/23 10:07:06;;;;;;;83.00;44.53;;;;;;;;;;4110830;28;20113;-72
2021/10/23 10:09:08;;;;;;;79.25;44.78;;;;;;;;;;4112757;28;20056;-73
2021/10/23 10:11:12;;;;;;;79.40;44.38;;;;;;;;;;4114334;28;20074;-72
2021/10/23 10:13:17;;;;;;;83.82;46.25;;;;;;;;;;4115813;28;20038;-72
2021/10/23 10:15:18;;;;;;;69.28;42.78;;;;;;;;;;4131560;28;20089;-72
2021/10/23 10:17:19;;;;;;;78.18;40.92;;;;;;;;;;4116524;28;20042;-73
2021/10/23 10:19:20;;;;;;;64.00;40.10;;;;;;;;;;4117326;28;20042;-72
2021/10/23 10:21:22;;;;;;;54.35;37.08;;;;;;;;;;4116995;28;20065;-73
2021/10/23 10:23:32;;;;;;;50.03;35.45;;;;;;;;;;4136246;28;20061;-72
2021/10/23 10:25:34;;;;;;;67.50;42.28;;;;;;;;;;4130598;28;20038;-72
2021/10/23 10:27:47;;;;;;;53.45;35.92;;;;;;;;;;4131806;28;20046;-72
2021/10/23 10:29:59;;;;;;;55.45;37.05;;;;;;;;;;4129236;28;20061;-72
2021/10/23 10:32:09;;;;;;;55.45;35.47;;;;;;;;;;4129202;28;20039;-72
2021/10/23 10:34:14;;;;;;;55.08;35.97;;;;;;;;;;4128665;28;20031;-72
2021/10/23 10:43:10;;;;;;;50.15;34.40;;;;;;;;;;4129568;28;20541;-71
2021/10/23 10:45:41;;;;;;;44.35;33.20;;;;;;;;;;4126894;28;20033;-71
2021/10/23 10:48:02;;;;;;;49.38;35.00;;;;;;;;;;4126635;28;20038;-71
2021/10/23 10:50:03;;;;;;;34.13;26.90;;;;;;;;;;4123490;28;20483;-70
2021/10/23 10:52:24;;;;;;;34.45;28.13;;;;;;;;;;4118148;28;20038;-71
2021/10/23 10:54:25;;;;;;;36.97;26.67;;;;;;;;;;4126492;28;20105;-70
2021/10/23 10:56:41;;;;;;;31.95;24.10;;;;;;;;;;4132029;28;20752;-71
2021/10/23 10:58:56;;;;;;;27.60;23.13;;;;;;;;;;4129887;28;20027;-71
2021/10/23 11:01:02;;;;;;;31.30;22.33;;;;;;;;;;4128751;28;20061;-77
2021/10/23 11:03:23;;;;;;;24.25;20.65;;;;;;;;;;4139041;28;20026;-75
2021/10/23 11:05:25;;;;;;;27.13;19.17;;;;;;;;;;4133604;28;20049;-75
2021/10/23 11:07:46;;;;;;;25.45;19.90;;;;;;;;;;4141101;28;20093;-76
2021/10/23 11:09:47;;;;;;;22.20;16.55;;;;;;;;;;4125760;28;20050;-75
2021/10/23 11:11:49;;;;;;;22.88;16.42;;;;;;;;;;4119575;28;20074;-75
2021/10/23 11:14:01;;;;;;;22.08;15.43;;;;;;;;;;4121553;28;20429;-75
2021/10/23 11:16:22;;;;;;;19.25;15.45;;;;;;;;;;4123683;28;20041;-75
2021/10/23 11:18:23;;;;;;;21.45;15.52;;;;;;;;;;4130015;28;20022;-75
2021/10/23 11:20:24;;;;;;;25.60;14.88;;;;;;;;;;4130488;28;20081;-75
2021/10/23 11:22:25;;;;;;;21.38;14.85;;;;;;;;;;4131042;28;20088;-76
2021/10/23 11:24:30;;;;;;;17.15;13.80;;;;;;;;;;4130351;28;20109;-75
2021/10/23 11:26:31;;;;;;;22.15;14.50;;;;;;;;;;4122173;28;20056;-75
2021/10/23 11:28:32;;;;;;;21.98;14.98;;;;;;;;;;4128383;28;20486;-75
2021/10/23 11:30:40;;;;;;;20.30;15.38;;;;;;;;;;4122710;28;20089;-74
2021/10/23 11:32:49;;;;;;;24.15;15.80;;;;;;;;;;4143647;28;20479;-75
2021/10/23 11:34:50;;;;;;;18.58;15.00;;;;;;;;;;4126277;28;20053;-76
2021/10/23 11:37:00;;;;;;;21.95;15.15;;;;;;;;;;4128844;28;20034;-75
2021/10/23 11:39:01;;;;;;;24.88;15.77;;;;;;;;;;4127974;28;20038;-75
2021/10/23 11:41:04;;;;;;;23.55;14.98;;;;;;;;;;4116141;28;20038;-76
2021/10/23 11:43:05;;;;;;;20.88;15.90;;;;;;;;;;4110937;28;20038;-76
2021/10/23 11:45:15;;;;;;;22.77;16.90;;;;;;;;;;4112989;28;20046;-76
2021/10/23 11:47:17;;;;;;;24.10;15.85;;;;;;;;;;4114440;28;20096;-76
2021/10/23 11:49:29;;;;;;;19.73;16.02;;;;;;;;;;4117878;28;20053;-76
2021/10/23 11:51:31;;;;;;;19.75;15.70;;;;;;;;;;4117082;28;20042;-76
2021/10/23 11:53:33;;;;;;;20.42;15.00;;;;;;;;;;4110619;28;20038;-75
2021/10/23 11:55:36;;;;;;;21.42;15.00;;;;;;;;;;4112664;28;20050;-76
2021/10/23 11:57:37;;;;;;;23.08;14.52;;;;;;;;;;4116654;28;20042;-76
2021/10/23 11:59:39;;;;;;;22.33;17.05;;;;;;;;;;4115273;28;20093;-75
2021/10/23 12:01:40;;;;;;;28.13;15.45;;;;;;;;;;4115647;28;20480;-75